Time;durP1;ratioP1;P1;durP2;ratioP2;P2;SDS_P1;SDS_P2;PMS_P1;PMS_P2;Temp;Humidity;BMP_temperature;BMP_pressure;BME280_temperature;BME280_humidity;BME280_pressure;Samples;Min_cycle;Max_cycle;Signal;HPM_P1;HPM_P2
2022/03/28 00:00:43;;;;;;;5.85;4.50;;;9.30;98.40;;;;;;5115449;28;20223;-85
2022/03/28 00:03:11;;;;;;;4.18;3.78;;;9.30;98.50;;;;;;5116244;28;20199;-86
2022/03/28 00:05:40;;;;;;;4.20;3.83;;;9.30;98.20;;;;;;5115774;28;20200;-86
2022/03/28 00:08:08;;;;;;;5.82;4.60;;;9.30;98.50;;;;;;5115070;28;20231;-85
2022/03/28 00:10:37;;;;;;;7.82;4.80;;;9.30;98.90;;;;;;5115644;28;20200;-86
2022/03/28 00:13:05;;;;;;;5.68;3.88;;;9.30;98.90;;;;;;5115516;28;20244;-85
2022/03/28 00:15:33;;;;;;;4.47;3.83;;;9.30;99.00;;;;;;5115248;27;20307;-86
2022/03/28 00:18:03;;;;;;;7.72;5.38;;;9.30;99.00;;;;;;5115325;28;20238;-85
2022/03/28 00:20:32;;;;;;;6.53;4.22;;;9.20;99.10;;;;;;5115200;28;20291;-86
2022/03/28 00:23:00;;;;;;;13.23;4.50;;;9.20;99.30;;;;;;5115481;28;20303;-86
2022/03/28 00:25:28;;;;;;;5.25;4.45;;;9.20;99.40;;;;;;5115030;28;20216;-86
2022/03/28 00:27:57;;;;;;;5.70;4.60;;;9.20;99.50;;;;;;5115928;28;20223;-85
2022/03/28 00:30:25;;;;;;;4.35;3.97;;;9.10;99.90;;;;;;5115231;27;20311;-86
2022/03/28 00:32:53;;;;;;;7.32;4.22;;;9.10;99.70;;;;;;5115019;28;20239;-85
2022/03/28 00:35:24;;;;;;;4.57;4.15;;;9.10;99.80;;;;;;5114099;28;20244;-86
2022/03/28 00:37:53;;;;;;;5.60;4.40;;;9.10;99.90;;;;;;5114976;28;20231;-86
2022/03/28 00:40:22;;;;;;;5.38;4.32;;;9.10;99.70;;;;;;5114394;28;20204;-86
2022/03/28 00:42:51;;;;;;;3.78;3.30;;;9.00;99.80;;;;;;5115111;28;20323;-85
2022/03/28 00:45:19;;;;;;;6.35;3.67;;;9.00;99.90;;;;;;5114863;28;20228;-86
2022/03/28 00:47:48;;;;;;;4.60;4.13;;;9.00;99.90;;;;;;5114998;28;20230;-86
2022/03/28 00:50:19;;;;;;;5.78;3.90;;;8.90;99.90;;;;;;5114703;28;20262;-86
2022/03/28 00:52:50;;;;;;;4.20;3.80;;;8.90;99.90;;;;;;5114624;28;20251;-86
2022/03/28 00:55:18;;;;;;;4.93;3.63;;;8.90;99.90;;;;;;5114540;28;20230;-86
2022/03/28 00:57:47;;;;;;;4.43;3.80;;;8.80;99.90;;;;;;5114473;28;20250;-86
2022/03/28 01:00:16;;;;;;;4.72;4.25;;;8.80;99.90;;;;;;5114749;28;20291;-86
2022/03/28 01:02:45;;;;;;;4.20;3.22;;;8.80;99.90;;;;;;5114912;28;20258;-86
2022/03/28 01:05:14;;;;;;;4.25;3.85;;;8.80;99.90;;;;;;5114074;28;20210;-86
2022/03/28 01:07:43;;;;;;;3.70;3.40;;;8.70;99.90;;;;;;5114215;28;20243;-86
2022/03/28 01:10:13;;;;;;;3.78;3.30;;;8.70;99.90;;;;;;5114619;28;20204;-86
2022/03/28 01:12:43;;;;;;;3.55;3.25;;;8.60;99.90;;;;;;5114465;28;20241;-85
2022/03/28 01:15:13;;;;;;;6.75;3.58;;;8.60;99.90;;;;;;5114478;28;20244;-86
2022/03/28 01:20:29;;;;;;;4.03;3.60;;;8.50;99.90;;;;;;5114262;28;20212;-86
2022/03/28 01:22:59;;;;;;;4.18;3.83;;;8.50;99.90;;;;;;5114356;27;20302;-86
2022/03/28 01:25:29;;;;;;;5.45;3.30;;;8.50;99.90;;;;;;5113968;28;20199;-86
2022/03/28 01:27:59;;;;;;;3.83;3.38;;;8.50;99.90;;;;;;5114363;28;20207;-86
2022/03/28 01:30:29;;;;;;;4.32;3.45;;;8.50;99.90;;;;;;5114074;28;20207;-85
2022/03/28 01:33:00;;;;;;;4.25;3.72;;;8.50;99.90;;;;;;5113859;28;20250;-86
2022/03/28 01:35:33;;;;;;;4.60;3.72;;;8.50;99.90;;;;;;5114095;28;20266;-86
2022/03/28 01:38:04;;;;;;;5.22;3.55;;;8.50;99.90;;;;;;5113938;28;20286;-85
2022/03/28 01:40:34;;;;;;;3.88;3.25;;;8.50;99.90;;;;;;5113792;28;20413;-85
2022/03/28 01:43:02;;;;;;;3.45;3.15;;;8.50;99.90;;;;;;5113761;28;20283;-85
2022/03/28 01:45:31;;;;;;;5.30;3.85;;;8.50;99.90;;;;;;5113777;28;20200;-86
2022/03/28 01:47:59;;;;;;;2.83;2.63;;;8.50;99.90;;;;;;5113138;28;20271;-85
2022/03/28 01:50:28;;;;;;;6.10;4.28;;;8.50;99.90;;;;;;5113613;28;20286;-85
2022/03/28 01:52:56;;;;;;;4.40;3.72;;;8.40;99.90;;;;;;5113236;28;20257;-85
2022/03/28 01:55:26;;;;;;;4.22;3.28;;;8.40;99.90;;;;;;5113376;28;20265;-85
2022/03/28 01:57:55;;;;;;;3.50;3.20;;;8.30;99.90;;;;;;5113177;28;20227;-85
2022/03/28 02:00:25;;;;;;;4.15;3.75;;;8.30;99.90;;;;;;5113077;28;20234;-85
2022/03/28 02:02:54;;;;;;;3.50;3.20;;;8.30;99.90;;;;;;5113123;28;20223;-85
2022/03/28 02:05:23;;;;;;;5.68;4.05;;;8.30;99.90;;;;;;5113372;28;20214;-86
2022/03/28 02:07:51;;;;;;;5.85;4.25;;;8.30;99.90;;;;;;5113063;28;20207;-85
2022/03/28 02:10:22;;;;;;;4.30;3.90;;;8.20;99.90;;;;;;5113083;28;20250;-86
2022/03/28 02:12:53;;;;;;;4.15;3.30;;;8.20;99.90;;;;;;5113384;28;20228;-86
2022/03/28 02:15:22;;;;;;;3.58;3.28;;;8.20;99.90;;;;;;5113097;28;20223;-86
2022/03/28 02:17:50;;;;;;;3.67;3.28;;;8.20;99.90;;;;;;5113185;28;20275;-85
2022/03/28 02:20:19;;;;;;;3.75;3.45;;;8.20;99.90;;;;;;5113106;27;20274;-86
2022/03/28 02:22:48;;;;;;;3.25;3.03;;;8.10;99.90;;;;;;5113654;28;20227;-85
2022/03/28 02:25:17;;;;;;;4.00;3.42;;;8.10;99.90;;;;;;5113334;28;20267;-85
2022/03/28 02:27:46;;;;;;;3.65;3.33;;;8.10;99.90;;;;;;5113543;28;20199;-86
2022/03/28 02:30:16;;;;;;;2.97;2.78;;;8.00;99.90;;;;;;5112712;28;20236;-85
2022/03/28 02:32:44;;;;;;;4.40;3.78;;;7.90;99.90;;;;;;5113481;28;20280;-86
2022/03/28 02:35:13;;;;;;;5.65;3.70;;;7.90;99.90;;;;;;5113002;28;20210;-86
2022/03/28 02:37:41;;;;;;;3.80;3.47;;;7.90;99.90;;;;;;5113117;28;20196;-84
2022/03/28 02:40:12;;;;;;;8.25;4.18;;;7.80;99.90;;;;;;5112875;28;20267;-86
2022/03/28 02:42:40;;;;;;;4.47;3.97;;;7.80;99.90;;;;;;5112412;28;20231;-85
2022/03/28 02:45:09;;;;;;;14.55;4.50;;;7.70;99.90;;;;;;5112869;28;20204;-85
2022/03/28 02:47:39;;;;;;;4.85;4.40;;;7.70;99.90;;;;;;5112999;28;20231;-86
2022/03/28 02:50:08;;;;;;;3.75;3.42;;;7.70;99.90;;;;;;5112730;28;20231;-85
2022/03/28 02:52:37;;;;;;;4.10;3.63;;;7.70;99.90;;;;;;5112493;28;20215;-85
2022/03/28 02:55:07;;;;;;;3.40;3.20;;;7.70;99.90;;;;;;5112835;28;20203;-85
2022/03/28 02:57:36;;;;;;;2.72;2.53;;;7.70;99.90;;;;;;5114778;28;20224;-85
2022/03/28 03:00:08;;;;;;;4.18;3.88;;;7.80;99.90;;;;;;5117223;28;20203;-85
2022/03/28 03:02:38;;;;;;;4.85;3.40;;;7.80;99.90;;;;;;5116915;28;20306;-86
2022/03/28 03:05:09;;;;;;;3.50;3.20;;;7.80;99.90;;;;;;5117398;28;20215;-85
2022/03/28 03:07:38;;;;;;;5.75;4.80;;;7.70;99.90;;;;;;5116737;28;20200;-85
2022/03/28 03:10:07;;;;;;;4.05;3.50;;;7.80;99.90;;;;;;5116732;28;20223;-86
2022/03/28 03:12:36;;;;;;;3.60;3.30;;;7.70;99.90;;;;;;5116204;28;20250;-85
2022/03/28 03:15:04;;;;;;;3.55;3.25;;;7.70;99.90;;;;;;5116778;28;20290;-85
2022/03/28 03:17:33;;;;;;;7.75;3.92;;;7.70;99.90;;;;;;5119875;28;20254;-86
2022/03/28 03:20:01;;;;;;;4.53;3.92;;;7.70;99.90;;;;;;5117262;28;20290;-84
2022/03/28 03:22:31;;;;;;;3.28;2.97;;;7.70;99.90;;;;;;5116102;27;20250;-86
2022/03/28 03:24:59;;;;;;;7.70;3.92;;;7.70;99.90;;;;;;5116503;28;20226;-86
2022/03/28 03:27:28;;;;;;;5.13;3.35;;;7.70;99.90;;;;;;5116594;28;20220;-84
2022/03/28 03:29:56;;;;;;;4.60;3.20;;;7.70;99.90;;;;;;5116503;28;20215;-86
2022/03/28 03:32:24;;;;;;;4.80;3.55;;;7.70;99.90;;;;;;5116281;28;20311;-86
2022/03/28 03:34:54;;;;;;;3.72;3.28;;;7.70;99.90;;;;;;5116359;28;20208;-85
2022/03/28 03:37:22;;;;;;;3.75;3.45;;;7.60;99.90;;;;;;5116489;28;20219;-85
2022/03/28 03:39:52;;;;;;;4.35;3.92;;;7.60;99.90;;;;;;5116617;27;20231;-85
2022/03/28 03:42:21;;;;;;;2.92;2.55;;;7.60;99.90;;;;;;5116064;28;20319;-85
2022/03/28 03:44:49;;;;;;;7.80;2.75;;;7.50;99.90;;;;;;5116112;28;20290;-85
2022/03/28 03:47:17;;;;;;;3.92;3.63;;;7.50;99.90;;;;;;5115663;28;20279;-85
2022/03/28 03:49:46;;;;;;;4.30;3.15;;;7.50;99.90;;;;;;5115761;28;20243;-85
2022/03/28 03:52:14;;;;;;;2.55;2.35;;;7.40;99.90;;;;;;5115722;28;20247;-86
2022/03/28 03:54:42;;;;;;;2.70;2.38;;;7.40;99.60;;;;;;5115726;28;20223;-86
2022/03/28 03:57:12;;;;;;;2.53;2.33;;;7.30;99.90;;;;;;5116001;28;20239;-86
2022/03/28 03:59:41;;;;;;;2.97;2.78;;;7.40;98.90;;;;;;5115555;28;20303;-84
2022/03/28 04:02:09;;;;;;;3.65;3.28;;;7.30;98.40;;;;;;5115280;28;20326;-85
2022/03/28 04:04:38;;;;;;;3.38;2.90;;;7.30;98.90;;;;;;5116107;28;20228;-85
2022/03/28 04:07:07;;;;;;;2.60;2.40;;;7.30;98.80;;;;;;5115487;28;20226;-85
2022/03/28 04:09:35;;;;;;;2.95;2.65;;;7.30;98.70;;;;;;5114968;28;20200;-86
2022/03/28 04:12:04;;;;;;;3.35;3.00;;;7.30;98.80;;;;;;5115046;28;20288;-85
2022/03/28 04:14:34;;;;;;;3.45;2.40;;;7.30;98.40;;;;;;5115305;28;20281;-85
2022/03/28 04:17:02;;;;;;;2.72;2.50;;;7.40;98.30;;;;;;5115081;28;20242;-85
2022/03/28 04:19:30;;;;;;;2.60;2.40;;;7.40;97.70;;;;;;5115102;28;20276;-86
2022/03/28 04:21:59;;;;;;;3.60;3.15;;;7.40;97.80;;;;;;5115238;28;20262;-85
2022/03/28 04:24:27;;;;;;;10.80;3.08;;;7.40;97.50;;;;;;5115575;28;20216;-84
2022/03/28 04:26:55;;;;;;;3.88;3.30;;;7.40;97.40;;;;;;5115263;28;20234;-84
2022/03/28 04:29:24;;;;;;;3.28;2.97;;;7.40;97.00;;;;;;5114889;28;20286;-85
2022/03/28 04:31:54;;;;;;;5.63;2.92;;;7.40;96.30;;;;;;5115052;28;20232;-84
2022/03/28 04:34:22;;;;;;;5.05;2.95;;;7.40;96.50;;;;;;5115144;28;20218;-85
2022/03/28 04:36:51;;;;;;;4.20;3.38;;;7.30;95.80;;;;;;5114927;28;20307;-85
2022/03/28 04:39:19;;;;;;;5.05;3.13;;;7.30;94.80;;;;;;5115038;28;20286;-84
2022/03/28 04:41:47;;;;;;;3.78;3.38;;;7.30;95.20;;;;;;5114574;28;20274;-84
2022/03/28 04:44:15;;;;;;;3.35;2.92;;;7.20;95.50;;;;;;5114770;28;20243;-85
2022/03/28 04:46:44;;;;;;;5.25;3.67;;;7.20;95.00;;;;;;5115202;27;20234;-86
2022/03/28 04:49:14;;;;;;;4.32;3.35;;;7.30;95.30;;;;;;5114658;28;20207;-85
2022/03/28 04:51:42;;;;;;;2.97;2.78;;;7.20;95.50;;;;;;5114240;28;20227;-84
2022/03/28 04:54:10;;;;;;;3.10;2.80;;;7.20;94.10;;;;;;5114218;28;20243;-85
2022/03/28 04:56:39;;;;;;;3.28;2.97;;;7.20;93.90;;;;;;5114504;28;20228;-84
2022/03/28 04:59:07;;;;;;;5.78;2.95;;;7.20;94.30;;;;;;5114703;28;20223;-84
2022/03/28 05:01:36;;;;;;;8.25;2.95;;;7.20;94.50;;;;;;5114397;28;20296;-85
2022/03/28 05:04:04;;;;;;;7.93;4.30;;;7.20;94.70;;;;;;5114622;28;20200;-85
2022/03/28 05:06:34;;;;;;;5.03;4.25;;;7.20;94.40;;;;;;5114322;28;20230;-85
2022/03/28 05:09:02;;;;;;;3.47;3.13;;;7.20;94.40;;;;;;5114243;28;20238;-85
2022/03/28 05:11:31;;;;;;;3.92;3.55;;;7.20;95.40;;;;;;5114225;28;20231;-84
2022/03/28 05:14:00;;;;;;;5.15;3.95;;;7.20;96.10;;;;;;5114480;28;20199;-85
2022/03/28 05:16:30;;;;;;;6.07;4.28;;;7.20;98.40;;;;;;5114145;28;20295;-85
2022/03/28 05:18:59;;;;;;;3.60;3.30;;;7.20;99.80;;;;;;5113957;28;20231;-84
2022/03/28 05:21:27;;;;;;;8.55;3.92;;;7.30;99.90;;;;;;5113664;27;20220;-85
2022/03/28 05:23:57;;;;;;;6.50;4.38;;;7.30;99.90;;;;;;5113932;28;20262;-85
2022/03/28 05:26:26;;;;;;;4.35;3.95;;;7.40;99.90;;;;;;5113908;28;20257;-85
2022/03/28 05:28:55;;;;;;;6.95;3.88;;;7.40;99.90;;;;;;5114276;28;20213;-84
2022/03/28 05:31:23;;;;;;;4.20;3.80;;;7.40;99.90;;;;;;5113567;28;20258;-84
2022/03/28 05:33:51;;;;;;;4.80;4.35;;;7.40;99.90;;;;;;5113698;28;20262;-85
2022/03/28 05:36:20;;;;;;;4.72;4.20;;;7.40;99.90;;;;;;5113756;28;20284;-85
2022/03/28 05:38:48;;;;;;;4.60;4.07;;;7.40;99.90;;;;;;5113490;28;20295;-84
2022/03/28 05:41:18;;;;;;;7.90;5.55;;;7.40;99.90;;;;;;5113285;28;20247;-85
2022/03/28 05:43:47;;;;;;;5.72;3.95;;;7.40;99.90;;;;;;5113529;28;20235;-85
2022/03/28 05:46:18;;;;;;;7.50;5.70;;;7.40;99.90;;;;;;5113520;28;20303;-85
2022/03/28 05:48:52;;;;;;;7.30;4.45;;;7.40;99.90;;;;;;5113633;28;20200;-85
2022/03/28 05:51:21;;;;;;;6.15;4.82;;;7.40;99.90;;;;;;5113663;28;20239;-85
2022/03/28 05:53:49;;;;;;;4.65;4.25;;;7.50;99.90;;;;;;5113876;28;20216;-85
2022/03/28 05:56:19;;;;;;;5.65;4.60;;;7.50;99.90;;;;;;5113270;28;20234;-87
2022/03/28 05:58:48;;;;;;;8.13;5.53;;;7.60;99.90;;;;;;5113457;28;20238;-87
2022/03/28 06:01:16;;;;;;;10.90;4.90;;;7.60;99.90;;;;;;5113284;27;20269;-88
2022/03/28 06:03:44;;;;;;;6.18;4.80;;;7.60;99.90;;;;;;5113773;28;20214;-86
2022/03/28 06:06:13;;;;;;;3.83;3.53;;;7.70;99.90;;;;;;5113583;28;20210;-87
2022/03/28 06:08:41;;;;;;;4.78;4.28;;;7.80;99.90;;;;;;5113780;28;20204;-87
2022/03/28 06:11:10;;;;;;;4.68;4.28;;;7.90;99.90;;;;;;5113331;28;20242;-85
2022/03/28 06:13:42;;;;;;;5.35;4.07;;;7.90;99.90;;;;;;5113106;28;20204;-85
2022/03/28 06:16:11;;;;;;;4.85;4.00;;;8.00;99.90;;;;;;5113488;28;20210;-84
2022/03/28 06:18:43;;;;;;;5.75;4.65;;;8.10;99.90;;;;;;5112990;28;20226;-85
2022/03/28 06:21:12;;;;;;;12.38;4.55;;;8.10;99.90;;;;;;5113273;28;20224;-85
2022/03/28 06:23:40;;;;;;;5.22;4.72;;;8.20;99.80;;;;;;5112600;28;20199;-85
2022/03/28 06:26:10;;;;;;;14.90;4.63;;;8.30;99.70;;;;;;5113012;28;20204;-85
2022/03/28 06:28:40;;;;;;;5.07;4.60;;;8.30;99.90;;;;;;5112895;28;20222;-85
2022/03/28 06:31:09;;;;;;;5.80;4.75;;;8.40;99.70;;;;;;5112935;28;20231;-85
2022/03/28 06:33:38;;;;;;;5.15;4.65;;;8.50;99.60;;;;;;5112595;28;20214;-86
2022/03/28 06:36:07;;;;;;;5.18;4.07;;;8.60;98.60;;;;;;5113171;28;20204;-85
2022/03/28 06:38:36;;;;;;;5.18;4.65;;;8.60;97.90;;;;;;5112364;28;20215;-85
2022/03/28 06:41:05;;;;;;;10.88;4.88;;;8.70;97.90;;;;;;5113210;28;20230;-85
2022/03/28 06:43:34;;;;;;;7.25;5.32;;;8.80;96.40;;;;;;5112625;28;20199;-85
2022/03/28 06:46:04;;;;;;;4.80;4.30;;;8.90;95.50;;;;;;5112803;28;20205;-86
2022/03/28 06:48:34;;;;;;;4.43;3.70;;;9.00;93.70;;;;;;5113402;28;20283;-85
2022/03/28 06:51:03;;;;;;;5.05;4.22;;;9.10;94.40;;;;;;5113866;28;20207;-85
2022/03/28 06:53:31;;;;;;;5.30;3.97;;;9.20;92.50;;;;;;5114045;28;20236;-85
2022/03/28 06:56:01;;;;;;;3.80;3.40;;;9.30;91.80;;;;;;5113136;28;20204;-86
2022/03/28 06:58:30;;;;;;;4.70;3.63;;;9.30;90.80;;;;;;5112951;28;20224;-82
2022/03/28 07:00:58;;;;;;;13.20;4.78;;;9.40;90.80;;;;;;5111947;28;20203;-82
2022/03/28 07:03:30;;;;;;;6.13;4.15;;;9.50;90.10;;;;;;5112547;28;20279;-84
2022/03/28 07:06:04;;;;;;;14.82;4.38;;;9.50;90.10;;;;;;5112196;28;20210;-85
2022/03/28 07:08:46;;;;;;;4.65;4.25;;;9.60;88.90;;;;;;5113667;28;20192;-85
2022/03/28 07:11:25;;;;;;;6.68;4.15;;;9.70;89.40;;;;;;5112567;28;20223;-86
2022/03/28 07:13:58;;;;;;;4.22;3.83;;;9.80;89.40;;;;;;5112506;28;20213;-83
2022/03/28 07:16:47;;;;;;;;;;;;;;;;;;;;;
2022/03/28 07:19:47;;;;;;;5.18;4.20;;;9.90;86.20;;;;;;5111793;28;20211;-85
2022/03/28 07:26:48;;;;;;;;;;;;;;;;;;;;;
2022/03/28 07:30:33;;;;;;;;;;;;;;;;;;;;;
2022/03/28 07:33:48;;;;;;;5.55;4.35;;;10.30;80.00;;;;;;5061794;28;20263;-86
2022/03/28 07:36:26;;;;;;;5.07;4.43;;;10.40;81.20;;;;;;5070813;28;20205;-87
2022/03/28 07:39:03;;;;;;;7.15;5.53;;;10.50;79.30;;;;;;5069831;28;20209;-87
2022/03/28 07:45:08;;;;;;;7.43;5.68;;;10.70;82.10;;;;;;5007465;28;20199;-86
2022/03/28 07:48:06;;;;;;;6.97;5.35;;;10.80;83.30;;;;;;5010334;28;20206;-86
2022/03/28 07:51:33;;;;;;;5.88;5.28;;;10.90;82.20;;;;;;5013429;28;20195;-87
2022/03/28 07:58:07;;;;;;;;;;;;;;;;;;;;;
2022/03/28 08:00:53;;;;;;;7.30;6.47;;;11.20;84.40;;;;;;5005401;28;20192;-87
2022/03/28 08:03:39;;;;;;;7.80;6.05;;;11.30;82.60;;;;;;5050931;28;20227;-87
2022/03/28 08:06:26;;;;;;;14.98;6.47;;;11.40;82.60;;;;;;5073655;28;20204;-87
2022/03/28 08:09:21;;;;;;;6.35;5.70;;;11.60;82.20;;;;;;5080397;28;20196;-87
2022/03/28 08:15:48;;;;;;;7.05;5.53;;;11.80;80.80;;;;;;5095186;28;20193;-86
2022/03/28 08:18:38;;;;;;;6.65;5.90;;;12.00;81.00;;;;;;5130961;27;20207;-86
2022/03/28 09:20:31;;;;;;;6.30;5.70;;;25.50;49.60;;;;;;5111062;27;20637;-85
2022/03/28 09:23:30;;;;;;;6.22;5.43;;;26.50;48.10;;;;;;5069930;28;20224;-85
2022/03/28 09:25:59;;;;;;;6.45;5.78;;;26.90;46.70;;;;;;5069687;28;20209;-84
2022/03/28 09:28:50;;;;;;;6.95;6.25;;;27.10;45.90;;;;;;5069826;28;20197;-85
2022/03/28 09:31:21;;;;;;;6.10;5.53;;;27.40;45.30;;;;;;5069699;28;20262;-84
2022/03/28 09:34:09;;;;;;;16.25;7.07;;;27.30;42.90;;;;;;5069482;28;20209;-84
2022/03/28 09:36:45;;;;;;;7.45;6.75;;;26.70;43.40;;;;;;5068961;28;20239;-84
2022/03/28 09:39:17;;;;;;;6.13;5.63;;;26.40;43.20;;;;;;5069162;28;20225;-84
2022/03/28 09:41:47;;;;;;;6.22;5.65;;;26.50;43.80;;;;;;5069112;28;20242;-86
2022/03/28 09:44:16;;;;;;;6.43;5.68;;;26.60;43.70;;;;;;5069491;28;20225;-84
2022/03/28 09:46:45;;;;;;;6.05;5.55;;;26.50;43.80;;;;;;5069055;28;20215;-84
2022/03/28 09:49:25;;;;;;;7.32;6.53;;;26.10;44.10;;;;;;5069169;28;20362;-84
2022/03/28 09:52:06;;;;;;;7.53;6.60;;;25.90;46.50;;;;;;5068654;28;20228;-84
2022/03/28 09:54:51;;;;;;;6.38;5.78;;;26.40;46.40;;;;;;5069198;28;20205;-84
2022/03/28 09:57:23;;;;;;;6.93;6.25;;;27.10;44.40;;;;;;5068968;28;20205;-84
2022/03/28 09:59:52;;;;;;;9.05;8.10;;;26.80;44.60;;;;;;5069011;28;20222;-84
2022/03/28 10:02:25;;;;;;;9.27;6.70;;;26.70;44.20;;;;;;5068654;28;20291;-84
2022/03/28 10:04:56;;;;;;;7.55;6.78;;;26.20;45.00;;;;;;5068645;28;20208;-84
2022/03/28 10:07:26;;;;;;;12.48;7.68;;;27.00;45.80;;;;;;5069288;28;20237;-83
2022/03/28 10:09:55;;;;;;;7.88;7.20;;;27.40;43.70;;;;;;5068417;28;20237;-84
2022/03/28 10:12:24;;;;;;;7.32;6.60;;;26.80;43.60;;;;;;5068516;28;20225;-84
2022/03/28 10:14:57;;;;;;;7.85;7.15;;;25.80;46.00;;;;;;5069004;28;20217;-84
2022/03/28 10:17:28;;;;;;;7.63;6.93;;;25.90;46.20;;;;;;5068724;28;20213;-84
2022/03/28 10:19:57;;;;;;;6.82;6.18;;;25.60;45.90;;;;;;5068658;28;20205;-84
2022/03/28 10:22:30;;;;;;;8.27;6.53;;;25.70;46.20;;;;;;5068276;28;20221;-83
2022/03/28 10:25:02;;;;;;;6.55;5.95;;;25.60;46.80;;;;;;5068282;28;20231;-84
2022/03/28 10:27:32;;;;;;;8.98;6.25;;;25.30;48.00;;;;;;5068399;28;20215;-84
2022/03/28 10:30:11;;;;;;;6.82;6.13;;;25.50;46.80;;;;;;5064455;28;20221;-84
2022/03/28 10:32:40;;;;;;;7.28;6.00;;;25.80;47.10;;;;;;5054617;28;20297;-84
2022/03/28 10:35:09;;;;;;;6.38;5.78;;;25.80;47.30;;;;;;5055350;28;20206;-84
2022/03/28 10:37:40;;;;;;;6.60;5.82;;;26.00;47.30;;;;;;5055135;28;20206;-84
2022/03/28 10:40:21;;;;;;;5.75;5.30;;;26.20;47.80;;;;;;5054837;28;20233;-84
2022/03/28 10:42:52;;;;;;;6.47;5.88;;;26.30;46.90;;;;;;5054760;28;20233;-84
2022/03/28 10:45:22;;;;;;;6.40;5.57;;;26.40;46.80;;;;;;5054617;28;20209;-85
2022/03/28 10:47:52;;;;;;;8.77;6.85;;;26.20;47.00;;;;;;5054775;28;20269;-84
2022/03/28 10:50:25;;;;;;;6.57;6.00;;;26.00;47.00;;;;;;5058664;28;20230;-84
2022/03/28 10:53:13;;;;;;;7.28;6.43;;;25.80;48.20;;;;;;5055142;28;20289;-84
2022/03/28 10:55:47;;;;;;;6.30;5.70;;;25.90;47.90;;;;;;5054553;28;20213;-84
2022/03/28 10:58:21;;;;;;;6.95;5.47;;;26.00;47.90;;;;;;5054736;28;20201;-84
2022/03/28 11:01:31;;;;;;;6.82;6.13;;;26.50;47.40;;;;;;5054392;28;20297;-84
2022/03/28 11:04:03;;;;;;;7.68;6.75;;;26.90;46.80;;;;;;5054667;28;20205;-86
2022/03/28 11:07:06;;;;;;;6.40;5.50;;;27.30;46.60;;;;;;5054716;28;20209;-85
2022/03/28 11:09:44;;;;;;;6.47;5.88;;;27.80;47.10;;;;;;5060047;28;20226;-84
2022/03/28 11:12:15;;;;;;;6.75;6.05;;;28.00;46.10;;;;;;5055106;28;20256;-85
2022/03/28 11:14:46;;;;;;;7.38;6.65;;;28.10;44.80;;;;;;5054708;28;20229;-84
2022/03/28 11:17:17;;;;;;;6.53;5.97;;;28.20;45.30;;;;;;5054210;28;20201;-83
2022/03/28 11:20:00;;;;;;;7.78;7.03;;;28.10;45.60;;;;;;5053880;28;20224;-84
2022/03/28 11:22:47;;;;;;;12.60;7.35;;;28.10;45.10;;;;;;5053993;28;20225;-85
2022/03/28 11:25:41;;;;;;;7.18;6.47;;;28.10;44.30;;;;;;5054025;28;20216;-84
2022/03/28 11:28:25;;;;;;;10.57;5.90;;;28.20;45.40;;;;;;5054213;28;20220;-84
2022/03/28 11:31:00;;;;;;;6.93;6.25;;;28.40;45.50;;;;;;5053540;28;20214;-83
2022/03/28 11:33:31;;;;;;;6.72;6.13;;;28.50;45.40;;;;;;5054386;28;20219;-84
2022/03/28 11:36:02;;;;;;;9.90;7.30;;;28.90;44.40;;;;;;5054022;28;20205;-84
2022/03/28 11:38:33;;;;;;;10.48;6.95;;;28.90;44.00;;;;;;5054002;28;20293;-84
2022/03/28 11:41:04;;;;;;;7.03;6.40;;;28.70;44.40;;;;;;5053599;28;20213;-84
2022/03/28 11:43:35;;;;;;;7.90;7.13;;;27.90;44.50;;;;;;5052777;28;20289;-84
2022/03/28 11:46:11;;;;;;;7.30;6.70;;;27.60;45.10;;;;;;5053741;28;20256;-85
2022/03/28 11:48:52;;;;;;;7.95;6.63;;;27.40;45.60;;;;;;5053563;28;20224;-84
2022/03/28 11:51:20;;;;;;;7.07;6.47;;;27.00;45.90;;;;;;5053059;28;20260;-84
2022/03/28 11:53:49;;;;;;;8.27;5.90;;;26.60;46.20;;;;;;5053532;28;20210;-85
2022/03/28 11:56:27;;;;;;;8.90;6.75;;;26.50;46.80;;;;;;5053894;28;20239;-85
2022/03/28 11:59:02;;;;;;;7.47;6.78;;;26.70;46.80;;;;;;5053438;28;20233;-84
2022/03/28 12:01:32;;;;;;;8.40;6.65;;;26.80;46.90;;;;;;5053552;28;20301;-84
2022/03/28 12:04:01;;;;;;;7.63;7.03;;;27.00;46.80;;;;;;5053424;28;20198;-84
2022/03/28 12:06:32;;;;;;;9.32;7.78;;;27.30;46.40;;;;;;5053415;28;20287;-84
2022/03/28 12:09:01;;;;;;;10.38;7.72;;;27.70;45.80;;;;;;5053443;28;20205;-84
2022/03/28 12:11:30;;;;;;;7.97;6.82;;;27.80;45.40;;;;;;5053193;28;20313;-84
2022/03/28 12:13:59;;;;;;;8.57;6.25;;;27.80;46.20;;;;;;5052847;28;20241;-84
2022/03/28 12:16:27;;;;;;;8.25;7.40;;;27.80;45.20;;;;;;5053257;28;20294;-85
2022/03/28 12:18:58;;;;;;;7.82;7.07;;;27.80;45.60;;;;;;5052675;28;20225;-85
2022/03/28 12:21:28;;;;;;;7.50;6.80;;;27.80;45.50;;;;;;5052800;28;20252;-84
2022/03/28 12:23:56;;;;;;;7.65;6.55;;;27.90;45.80;;;;;;5052787;28;20206;-84
2022/03/28 12:26:25;;;;;;;7.57;6.82;;;28.00;45.60;;;;;;5052963;28;20228;-84
2022/03/28 12:28:55;;;;;;;7.70;6.93;;;27.90;45.40;;;;;;5053030;28;20297;-84
2022/03/28 12:31:23;;;;;;;9.82;6.80;;;27.60;45.70;;;;;;5052334;28;20256;-84
2022/03/28 12:33:52;;;;;;;7.30;6.60;;;27.50;45.60;;;;;;5052887;28;20197;-84
2022/03/28 12:36:28;;;;;;;7.43;6.68;;;27.40;45.80;;;;;;5053028;28;20274;-84
2022/03/28 12:38:58;;;;;;;11.55;6.93;;;27.40;45.80;;;;;;5052662;28;20206;-83
2022/03/28 12:41:27;;;;;;;7.45;6.75;;;27.30;46.30;;;;;;5052616;28;20218;-84
2022/03/28 12:43:57;;;;;;;8.05;6.38;;;27.20;46.70;;;;;;5052819;28;20240;-84
2022/03/28 12:46:27;;;;;;;7.20;6.43;;;27.10;46.40;;;;;;5052553;28;20206;-84
2022/03/28 12:48:57;;;;;;;8.10;7.20;;;27.00;46.20;;;;;;5052354;28;20213;-85
2022/03/28 12:51:27;;;;;;;10.90;7.38;;;26.70;46.90;;;;;;5052090;28;20230;-84
2022/03/28 12:54:03;;;;;;;14.27;7.28;;;26.70;46.60;;;;;;5052053;28;20262;-84
2022/03/28 12:56:42;;;;;;;8.13;7.28;;;26.60;47.00;;;;;;5052734;28;20209;-84
2022/03/28 12:59:17;;;;;;;9.10;7.13;;;26.40;46.90;;;;;;5052223;28;20208;-84
2022/03/28 13:01:45;;;;;;;7.45;6.75;;;26.50;47.00;;;;;;5051824;28;20280;-84
2022/03/28 13:04:17;;;;;;;22.00;6.50;;;26.60;47.10;;;;;;5052515;28;20257;-84
2022/03/28 13:06:46;;;;;;;7.57;5.55;;;26.50;46.80;;;;;;5052401;28;20220;-84
2022/03/28 13:09:18;;;;;;;7.30;6.53;;;26.40;47.30;;;;;;5051993;28;20210;-85
2022/03/28 13:11:47;;;;;;;10.75;6.57;;;26.60;47.60;;;;;;5051714;28;20313;-84
2022/03/28 13:14:26;;;;;;;7.47;6.03;;;26.80;47.50;;;;;;5052228;28;20221;-84
2022/03/28 13:17:12;;;;;;;8.20;6.30;;;27.20;47.70;;;;;;5052379;28;20217;-83
2022/03/28 13:19:42;;;;;;;10.45;6.35;;;27.40;46.50;;;;;;5052041;28;20235;-84
2022/03/28 13:22:11;;;;;;;8.48;7.40;;;27.20;46.20;;;;;;5052134;28;20225;-84
2022/03/28 13:24:40;;;;;;;8.88;6.97;;;26.90;46.40;;;;;;5051665;28;20213;-84
2022/03/28 13:29:58;;;;;;;6.18;5.68;;;26.90;47.20;;;;;;5052479;28;20273;-84
2022/03/28 13:32:26;;;;;;;6.90;6.30;;;26.90;47.30;;;;;;5051655;28;20257;-84
2022/03/28 13:34:55;;;;;;;6.55;5.75;;;26.80;47.40;;;;;;5051760;28;20259;-84
2022/03/28 13:37:23;;;;;;;9.05;7.13;;;26.30;47.30;;;;;;5052013;28;20285;-85
2022/03/28 13:39:52;;;;;;;8.43;7.72;;;26.20;47.70;;;;;;5051653;28;20289;-85
2022/03/28 13:42:20;;;;;;;7.32;6.70;;;25.10;45.80;;;;;;5051664;28;20320;-85
2022/03/28 13:44:48;;;;;;;7.72;6.93;;;24.30;49.60;;;;;;5052063;28;20234;-84
2022/03/28 13:47:18;;;;;;;7.70;6.80;;;24.60;50.10;;;;;;5052031;28;20284;-85
2022/03/28 13:49:46;;;;;;;8.23;7.15;;;25.00;49.80;;;;;;5052009;28;20206;-84
2022/03/28 13:52:15;;;;;;;7.45;6.68;;;25.20;48.90;;;;;;5051064;28;20253;-84
2022/03/28 13:54:43;;;;;;;7.10;6.40;;;25.20;49.10;;;;;;5051927;28;20296;-84
2022/03/28 13:57:11;;;;;;;6.90;6.28;;;25.30;49.10;;;;;;5052403;28;20234;-85
2022/03/28 13:59:40;;;;;;;6.28;5.75;;;25.30;49.30;;;;;;5051678;28;20210;-85
2022/03/28 14:02:08;;;;;;;16.65;6.38;;;25.30;49.20;;;;;;5051545;28;20244;-85
2022/03/28 14:04:38;;;;;;;6.78;6.18;;;25.40;49.20;;;;;;5051868;28;20264;-84
2022/03/28 14:07:06;;;;;;;7.53;6.72;;;25.60;49.70;;;;;;5055326;28;20205;-85
2022/03/28 14:09:35;;;;;;;6.15;5.55;;;25.70;49.00;;;;;;5055803;28;20296;-85
2022/03/28 14:12:04;;;;;;;5.55;5.07;;;25.80;49.30;;;;;;5055264;28;20230;-84
2022/03/28 14:14:35;;;;;;;10.73;5.72;;;25.90;49.00;;;;;;5055332;28;20274;-84
2022/03/28 14:17:04;;;;;;;8.80;6.15;;;25.90;48.20;;;;;;5055900;28;20236;-84
2022/03/28 14:19:33;;;;;;;7.82;7.13;;;25.80;47.80;;;;;;5055023;28;20236;-84
2022/03/28 14:22:03;;;;;;;7.07;6.00;;;25.80;48.20;;;;;;5055114;28;20225;-85
2022/03/28 14:24:34;;;;;;;8.93;6.50;;;25.50;47.90;;;;;;5055259;28;20275;-84
2022/03/28 14:27:02;;;;;;;6.78;6.07;;;25.60;47.90;;;;;;5055543;28;20209;-85
2022/03/28 14:29:31;;;;;;;6.50;5.90;;;25.50;48.20;;;;;;5055130;28;20233;-85
2022/03/28 14:31:59;;;;;;;7.45;5.90;;;25.40;48.20;;;;;;5053877;28;20294;-84
2022/03/28 14:34:28;;;;;;;6.40;5.80;;;25.10;48.70;;;;;;5050381;28;20267;-83
2022/03/28 14:36:56;;;;;;;5.93;5.32;;;24.90;49.20;;;;;;5034864;28;20234;-84
2022/03/28 14:39:26;;;;;;;6.45;5.85;;;24.60;49.40;;;;;;5047785;28;20197;-84